tititudorancea.com
Station Historical Data
Daily Summary for November 9, 2018 Units:  English    Metric   Both
« Previous Day
Next Day »
Daily Weekly Monthly Yearly Custom
  High: Low: Average:
Temperature: TemperatureF °F 41.6 °F 53.8 °F
Dew Point: DewpointF °F 38.1 °F 42.4 °F
Humidity: Humidity % 40 % 68 %
Wind Speed: WindSpeedMPH mph 0.0 mph 6.8 mph
Wind Gust: WindSpeedGustMPH mph - -
Wind:- - West
Pressure: PressureIn in 30.00 in -
Precipitation: 0.00 in    
Historical Graphs
 
 
Ararat weather Find more about Weather in Ararat, AU


 



 


Tabular Data for November 9, 2018
Time Temperature Dew Point Pressure Wind Wind Speed Wind Gust Humidity Rainfall Rate (Hourly)
TemperatureF °F DewpointF °F PressureIn in Calm     Humidity % HourlyPrecipIn in
00:04 48.6 °F 41.4 °F 30.13 in SW 2.3 mph 0.8 mph 76 % 0.00 in
00:09 48.4 °F 41.2 °F 30.13 in Calm     76 % 0.00 in
00:14 47.9 °F 41.0 °F 30.13 in Calm     77 % 0.00 in
00:19 47.6 °F 41.1 °F 30.13 in SW 2.3 mph 0.8 mph 78 % 0.00 in
00:24 47.3 °F 41.1 °F 30.13 in Calm     79 % 0.00 in
00:29 46.8 °F 41.0 °F 30.13 in SW 3.5 mph 2.4 mph 80 % 0.00 in
00:34 46.5 °F 41.0 °F 30.12 in Calm     81 % 0.00 in
00:39 46.4 °F 41.2 °F 30.12 in Calm     82 % 0.00 in
00:44 46.2 °F 41.3 °F 30.12 in Calm     83 % 0.00 in
00:49 45.9 °F 41.0 °F 30.12 in Calm     83 % 0.00 in
00:54 45.6 °F 40.7 °F 30.12 in Calm     83 % 0.00 in
00:59 45.4 °F 40.8 °F 30.12 in Calm     84 % 0.00 in
01:04 45.3 °F 40.7 °F 30.12 in Calm     84 % 0.00 in
01:09 45.0 °F 40.5 °F 30.12 in Calm     84 % 0.00 in
01:14 44.5 °F 40.0 °F 30.12 in SW 1.0 mph 0.1 mph 84 % 0.00 in
01:19 44.3 °F 40.1 °F 30.11 in SW 3.5 mph 1.6 mph 85 % 0.00 in
01:24 44.1 °F 40.2 °F 30.11 in WSW 2.3 mph   86 % 0.00 in
01:29 44.0 °F 40.4 °F 30.11 in WSW 2.3 mph 1.8 mph 87 % 0.00 in
01:34 44.0 °F 40.4 °F 30.11 in SW 2.0 mph 0.6 mph 87 % 0.00 in
01:39 43.8 °F 40.2 °F 30.11 in Calm     87 % 0.00 in
01:44 43.7 °F 40.1 °F 30.11 in Calm     87 % 0.00 in
01:49 43.6 °F 40.0 °F 30.11 in Calm     87 % 0.00 in
01:54 43.4 °F 39.8 °F 30.11 in Calm     87 % 0.00 in
01:59 43.4 °F 40.1 °F 30.11 in Calm     88 % 0.00 in
02:04 43.5 °F 40.2 °F 30.10 in Calm     88 % 0.00 in
02:09 43.5 °F 40.5 °F 30.10 in Calm     89 % 0.00 in
02:14 43.5 °F 40.2 °F 30.10 in Calm     88 % 0.00 in
02:19 43.4 °F 40.4 °F 30.10 in Calm     89 % 0.00 in
02:24 43.3 °F 40.0 °F 30.10 in Calm     88 % 0.00 in
02:29 43.1 °F 40.1 °F 30.09 in Calm     89 % 0.00 in
02:34 42.8 °F 39.5 °F 30.10 in Calm     88 % 0.00 in
02:39 42.6 °F 39.3 °F 30.09 in Calm     88 % 0.00 in
02:44 42.4 °F 39.4 °F 30.09 in Calm     89 % 0.00 in
02:49 42.2 °F 39.2 °F 30.09 in Calm     89 % 0.00 in
02:54 42.1 °F 39.1 °F 30.09 in Calm     89 % 0.00 in
02:59 41.9 °F 38.9 °F 30.09 in SW 2.0 mph 0.2 mph 89 % 0.00 in
03:04 41.8 °F 38.8 °F 30.09 in SW 2.3 mph 1.2 mph 89 % 0.00 in
03:09 41.6 °F 38.6 °F 30.09 in SW 2.3 mph 0.7 mph 89 % 0.00 in
03:14 41.7 °F 39.0 °F 30.09 in Calm   0.2 mph 90 % 0.00 in
03:19 41.9 °F 39.5 °F 30.09 in Calm     91 % 0.00 in
03:24 42.1 °F 39.7 °F 30.09 in WSW 2.3 mph 1.0 mph 91 % 0.00 in
03:29 42.3 °F 39.9 °F 30.09 in Calm     91 % 0.00 in
03:34 42.8 °F 40.4 °F 30.09 in North 1.2 mph 0.4 mph 91 % 0.00 in
03:39 43.3 °F 41.1 °F 30.09 in SW 3.5 mph 2.7 mph 92 % 0.00 in
03:44 44.1 °F 41.6 °F 30.09 in SW 2.3 mph 2.3 mph 91 % 0.00 in
03:49 44.7 °F 42.2 °F 30.08 in SW 3.5 mph 2.1 mph 91 % 0.00 in
03:54 45.5 °F 42.7 °F 30.09 in SW 3.5 mph 1.7 mph 90 % 0.00 in
03:59 46.2 °F 42.8 °F 30.08 in SW 3.5 mph 2.3 mph 88 % 0.00 in
04:04 46.7 °F 42.7 °F 30.08 in SW 3.5 mph 2.5 mph 86 % 0.00 in
04:09 47.1 °F 42.8 °F 30.08 in SW 4.0 mph 3.6 mph 85 % 0.00 in
04:14 47.4 °F 42.8 °F 30.07 in North 4.0 mph 2.9 mph 84 % 0.00 in
04:19 47.6 °F 42.7 °F 30.07 in WSW 3.5 mph 2.4 mph 83 % 0.00 in
04:24 47.7 °F 42.5 °F 30.08 in SW 2.3 mph 1.2 mph 82 % 0.00 in
04:29 47.8 °F 42.6 °F 30.07 in SW 1.2 mph 0.3 mph 82 % 0.00 in
04:34 47.9 °F 42.3 °F 30.07 in Calm     81 % 0.00 in
04:39 47.8 °F 42.3 °F 30.08 in Calm     81 % 0.00 in
04:44 47.7 °F 42.5 °F 30.07 in Calm     82 % 0.00 in
04:49 47.3 °F 42.1 °F 30.07 in WSW 2.3 mph 1.9 mph 82 % 0.00 in
04:54 47.1 °F 42.2 °F 30.07 in SW 3.5 mph 1.8 mph 83 % 0.00 in
04:59 46.8 °F 41.9 °F 30.07 in WSW 3.5 mph 2.3 mph 83 % 0.00 in
05:04 46.7 °F 41.8 °F 30.08 in SW 2.3 mph 0.7 mph 83 % 0.00 in
05:09 46.6 °F 42.0 °F 30.08 in North 2.3 mph 0.9 mph 84 % 0.00 in
05:14 46.6 °F 42.0 °F 30.08 in SW 1.2 mph   84 % 0.00 in
05:19 46.6 °F 42.0 °F 30.08 in Calm     84 % 0.00 in
05:24 46.6 °F 42.0 °F 30.08 in SW 2.3 mph 2.1 mph 84 % 0.00 in
05:29 46.7 °F 42.1 °F 30.08 in SW 2.3 mph 1.1 mph 84 % 0.00 in
05:34 46.8 °F 42.2 °F 30.08 in SW 2.3 mph 1.2 mph 84 % 0.00 in
05:39 47.0 °F 42.4 °F 30.08 in WSW 2.3 mph 0.4 mph 84 % 0.00 in
05:44 47.1 °F 42.5 °F 30.08 in SW 2.3 mph 1.7 mph 84 % 0.00 in
05:49 47.4 °F 42.5 °F 30.08 in North 3.5 mph 2.4 mph 83 % 0.00 in
05:54 47.6 °F 42.4 °F 30.08 in SW 3.5 mph 2.3 mph 82 % 0.00 in
05:59 47.9 °F 42.7 °F 30.08 in WSW 3.5 mph 2.5 mph 82 % 0.00 in
06:04 48.1 °F 42.5 °F 30.08 in WSW 4.6 mph 3.2 mph 81 % 0.00 in
06:09 48.2 °F 42.3 °F 30.08 in North 6.9 mph 2.6 mph 80 % 0.00 in
06:14 48.4 °F 42.5 °F 30.09 in WSW 4.6 mph 3.2 mph 80 % 0.00 in
06:19 48.4 °F 42.5 °F 30.09 in WSW 5.8 mph 2.7 mph 80 % 0.00 in
06:24 48.4 °F 42.2 °F 30.09 in WSW 3.5 mph 3.4 mph 79 % 0.00 in
06:29 48.3 °F 42.1 °F 30.09 in WSW 3.5 mph 3.9 mph 79 % 0.00 in
06:34 48.3 °F 42.1 °F 30.09 in WSW 5.8 mph 4.0 mph 79 % 0.00 in
06:39 48.2 °F 42.0 °F 30.09 in WSW 4.6 mph 2.7 mph 79 % 0.00 in
06:44 48.0 °F 42.1 °F 30.09 in WSW 6.9 mph 3.0 mph 80 % 0.00 in
06:49 47.9 °F 42.0 °F 30.09 in North 4.6 mph 4.5 mph 80 % 0.00 in
06:54 47.8 °F 41.9 °F 30.09 in WSW 4.6 mph 2.2 mph 80 % 0.00 in
06:59 47.7 °F 42.2 °F 30.09 in North 4.6 mph 3.5 mph 81 % 0.00 in
07:04 47.7 °F 42.2 °F 30.09 in WSW 5.0 mph 4.1 mph 81 % 0.00 in
07:09 47.7 °F 42.2 °F 30.09 in WSW 3.5 mph 2.4 mph 81 % 0.00 in
07:14 47.7 °F 42.2 °F 30.09 in WSW 3.5 mph 3.5 mph 81 % 0.00 in
07:19 47.8 °F 42.3 °F 30.09 in WSW 4.6 mph 4.4 mph 81 % 0.00 in
07:24 47.8 °F 42.3 °F 30.09 in WSW 4.0 mph 4.1 mph 81 % 0.00 in
07:29 48.0 °F 42.4 °F 30.10 in West 5.8 mph 1.6 mph 81 % 0.00 in
07:34 48.1 °F 43.8 °F 30.10 in West 6.9 mph 5.4 mph 85 % 0.00 in
07:39 48.3 °F 42.7 °F 30.10 in West 5.0 mph 3.6 mph 81 % 0.00 in
07:44 48.5 °F 42.6 °F 30.10 in North 9.2 mph 6.7 mph 80 % 0.00 in
07:49 48.6 °F 42.7 °F 30.10 in West 6.9 mph 4.4 mph 80 % 0.00 in
07:54 48.8 °F 42.9 °F 30.10 in North 8.1 mph 4.6 mph 80 % 0.00 in
07:59 49.1 °F 43.2 °F 30.10 in West 8.1 mph 3.7 mph 80 % 0.00 in
08:04 49.3 °F 43.4 °F 30.10 in West 5.0 mph 2.4 mph 80 % 0.00 in
08:09 49.6 °F 43.4 °F 30.10 in West 6.9 mph 3.9 mph 79 % 0.00 in
08:14 49.9 °F 43.3 °F 30.10 in West 8.1 mph 5.7 mph 78 % 0.00 in
08:19 50.1 °F 43.5 °F 30.10 in West 6.9 mph 5.1 mph 78 % 0.00 in
08:24 50.2 °F 43.3 °F 30.10 in North 6.9 mph 6.5 mph 77 % 0.00 in
08:29 50.2 °F 43.6 °F 30.10 in WNW 6.9 mph 6.3 mph 78 % 0.00 in
08:34 50.5 °F 43.9 °F 30.10 in WNW 4.6 mph 1.9 mph 78 % 0.00 in
08:39 50.7 °F 44.1 °F 30.10 in WNW 4.6 mph 3.8 mph 78 % 0.00 in
08:44 51.0 °F 44.4 °F 30.10 in WNW 4.0 mph 3.5 mph 78 % 0.00 in
08:49 51.2 °F 44.2 °F 30.09 in WNW 6.9 mph 4.6 mph 77 % 0.00 in
08:54 51.9 °F 45.3 °F 30.10 in WNW 5.8 mph 2.4 mph 78 % 0.00 in
08:59 52.5 °F 45.2 °F 30.10 in WNW 4.6 mph 3.8 mph 76 % 0.00 in
09:04 53.0 °F 44.9 °F 30.10 in WNW 5.8 mph 1.6 mph 74 % 0.00 in
09:09 53.4 °F 45.0 °F 30.10 in WNW 8.1 mph 3.2 mph 73 % 0.00 in
09:14 53.8 °F 45.0 °F 30.10 in WNW 6.9 mph 2.5 mph 72 % 0.00 in
09:19 54.1 °F 44.9 °F 30.10 in WNW 4.6 mph 3.1 mph 71 % 0.00 in
09:24 54.5 °F 44.9 °F 30.10 in WNW 5.8 mph 3.7 mph 70 % 0.00 in
09:29 55.0 °F 45.0 °F 30.10 in WNW 7.0 mph 4.2 mph 69 % 0.00 in
09:34 55.1 °F 44.7 °F 30.10 in North 8.1 mph 5.8 mph 68 % 0.00 in
09:39 55.6 °F 44.4 °F 30.10 in WNW 11.0 mph 9.7 mph 66 % 0.00 in
09:44 55.2 °F 42.8 °F 30.10 in NW 9.2 mph 7.6 mph 63 % 0.00 in
09:49 55.4 °F 42.2 °F 30.10 in WNW 15.0 mph 10.3 mph 61 % 0.00 in
09:54 55.5 °F 42.3 °F 30.10 in WNW 11.5 mph 8.0 mph 61 % 0.00 in
09:59 55.5 °F 41.8 °F 30.09 in West 11.5 mph 8.7 mph 60 % 0.00 in
10:04 55.6 °F 41.9 °F 30.09 in NW 12.7 mph 10.6 mph 60 % 0.00 in
10:09 56.2 °F 42.5 °F 30.09 in WNW 13.8 mph 10.0 mph 60 % 0.00 in
10:14 57.3 °F 41.7 °F 30.09 in North 13.8 mph 6.0 mph 56 % 0.00 in
10:19 57.9 °F 42.8 °F 30.09 in WNW 11.5 mph 9.1 mph 57 % 0.00 in
10:24 58.0 °F 41.9 °F 30.09 in NW 15.0 mph 8.4 mph 55 % 0.00 in
10:29 58.0 °F 41.0 °F 30.09 in WNW 12.7 mph 13.9 mph 53 % 0.00 in
10:34 58.5 °F 41.4 °F 30.09 in NW 9.2 mph 7.3 mph 53 % 0.00 in
10:39 58.8 °F 41.7 °F 30.09 in WNW 13.0 mph 11.9 mph 53 % 0.00 in
10:44 58.3 °F 41.7 °F 30.09 in NNW 12.7 mph 9.6 mph 54 % 0.00 in
10:49 58.6 °F 41.5 °F 30.09 in North 12.7 mph 8.4 mph 53 % 0.00 in
10:54 59.3 °F 42.2 °F 30.09 in North 11.5 mph 7.7 mph 53 % 0.00 in
10:59 59.7 °F 42.0 °F 30.09 in NW 12.7 mph 9.3 mph 52 % 0.00 in
11:04 59.9 °F 42.2 °F 30.09 in NNW 12.7 mph 10.8 mph 52 % 0.00 in
11:09 59.6 °F 40.9 °F 30.09 in NW 13.8 mph 12.3 mph 50 % 0.00 in
11:14 59.5 °F 41.3 °F 30.09 in NW 10.0 mph 6.4 mph 51 % 0.00 in
11:19 59.7 °F 41.0 °F 30.08 in North 11.5 mph 7.6 mph 50 % 0.00 in
11:24 60.1 °F 41.4 °F 30.08 in NW 11.5 mph 7.0 mph 50 % 0.00 in
11:29 60.4 °F 41.7 °F 30.08 in NNW 17.3 mph 7.9 mph 50 % 0.00 in
11:34 60.7 °F 40.9 °F 30.08 in NW 11.5 mph 9.4 mph 48 % 0.00 in
11:39 60.9 °F 41.6 °F 30.08 in NW 19.6 mph 7.8 mph 49 % 0.00 in
11:44 61.1 °F 41.2 °F 30.08 in WNW 10.4 mph 8.9 mph 48 % 0.00 in
11:49 61.2 °F 41.3 °F 30.07 in NW 20.7 mph 6.0 mph 48 % 0.00 in
11:54 61.2 °F 41.3 °F 30.07 in WNW 11.5 mph 8.6 mph 48 % 0.00 in
11:59 60.3 °F 40.5 °F 30.07 in NW 12.7 mph 5.5 mph 48 % 0.00 in
12:04 59.8 °F 40.1 °F 30.07 in NW 16.1 mph 10.6 mph 48 % 0.00 in
12:09 59.7 °F 39.4 °F 30.07 in WNW 11.5 mph 5.4 mph 47 % 0.00 in
12:14 59.9 °F 40.7 °F 30.06 in WNW 9.2 mph 6.6 mph 49 % 0.00 in
12:19 60.3 °F 41.0 °F 30.06 in West 11.5 mph 9.3 mph 49 % 0.00 in
12:24 60.9 °F 40.0 °F 30.06 in NW 8.1 mph 6.6 mph 46 % 0.00 in
12:29 60.7 °F 39.8 °F 30.06 in NW 13.8 mph 8.5 mph 46 % 0.00 in
12:34 61.1 °F 40.1 °F 30.06 in NW 10.4 mph 6.8 mph 46 % 0.00 in
12:39 61.5 °F 39.9 °F 30.06 in NW 11.5 mph 6.3 mph 45 % 0.00 in
12:44 62.2 °F 40.0 °F 30.05 in NW 11.5 mph 8.4 mph 44 % 0.00 in
12:49 62.3 °F 40.1 °F 30.05 in WNW 14.0 mph 11.2 mph 44 % 0.00 in
12:54 61.9 °F 39.7 °F 30.05 in NW 11.5 mph 9.8 mph 44 % 0.00 in
12:59 62.3 °F 40.1 °F 30.05 in WNW 16.1 mph 14.4 mph 44 % 0.00 in
13:04 63.1 °F 40.2 °F 30.05 in WNW 19.6 mph 11.2 mph 43 % 0.00 in
13:09 63.9 °F 40.3 °F 30.04 in North 14.0 mph 11.5 mph 42 % 0.00 in
13:14 63.9 °F 40.3 °F 30.04 in WNW 12.7 mph 8.4 mph 42 % 0.00 in
13:19 62.3 °F 38.9 °F 30.04 in NW 12.0 mph 10.5 mph 42 % 0.00 in
13:24 61.9 °F 39.7 °F 30.04 in NNW 17.3 mph 10.6 mph 44 % 0.00 in
13:29 62.6 °F 38.6 °F 30.04 in NW 10.4 mph 8.1 mph 41 % 0.00 in
13:34 62.1 °F 38.1 °F 30.03 in NW 11.5 mph 7.4 mph 41 % 0.00 in
13:39 62.1 °F 39.3 °F 30.03 in NW 15.0 mph 7.7 mph 43 % 0.00 in
13:44 62.1 °F 39.3 °F 30.03 in North 12.7 mph 10.6 mph 43 % 0.00 in
13:49 62.5 °F 40.9 °F 30.03 in WNW 9.2 mph 3.4 mph 45 % 0.00 in
13:54 63.2 °F 40.9 °F 30.02 in West 15.0 mph 9.5 mph 44 % 0.00 in
13:59 64.0 °F 40.4 °F 30.02 in West 15.0 mph 12.5 mph 42 % 0.00 in
14:04 64.0 °F 39.2 °F 30.02 in NW 17.3 mph 12.5 mph 40 % 0.00 in
14:09 63.7 °F 40.2 °F 30.02 in NW 12.0 mph 10.0 mph 42 % 0.00 in
14:14 65.2 °F 41.5 °F 30.02 in WNW 11.5 mph 7.1 mph 42 % 0.00 in
14:19 65.2 °F 40.3 °F 30.02 in West 17.3 mph 13.3 mph 40 % 0.00 in
14:24 64.3 °F 40.1 °F 30.01 in WNW 9.2 mph 7.3 mph 41 % 0.00 in
14:29 64.1 °F 39.9 °F 30.01 in North 17.3 mph 11.0 mph 41 % 0.00 in
14:34 63.7 °F 39.5 °F 30.02 in NW 10.4 mph 5.9 mph 41 % 0.00 in
14:39 63.3 °F 38.6 °F 30.02 in North 13.0 mph 9.8 mph 40 % 0.00 in
14:44 63.0 °F 39.5 °F 30.02 in WSW 15.0 mph 9.9 mph 42 % 0.00 in
14:49 63.8 °F 39.6 °F 30.01 in WNW 18.4 mph 10.3 mph 41 % 0.00 in
14:54 63.8 °F 40.3 °F 30.02 in West 11.5 mph 9.6 mph 42 % 0.00 in
14:59 63.7 °F 40.2 °F 30.01 in WNW 12.7 mph 8.2 mph 42 % 0.00 in
15:04 64.0 °F 41.0 °F 30.01 in West 12.7 mph 8.7 mph 43 % 0.00 in
15:09 64.1 °F 41.1 °F 30.01 in WNW 13.8 mph 9.8 mph 43 % 0.00 in
15:14 63.9 °F 41.0 °F 30.01 in North 12.7 mph 10.7 mph 43 % 0.00 in
15:19 63.9 °F 41.0 °F 30.01 in WNW 11.5 mph 9.0 mph 43 % 0.00 in
15:24 64.8 °F 41.8 °F 30.00 in WNW 11.5 mph 5.6 mph 43 % 0.00 in
15:29 64.7 °F 41.1 °F 30.01 in North 12.0 mph 10.9 mph 42 % 0.00 in
15:34 64.1 °F 41.1 °F 30.01 in West 11.0 mph 8.0 mph 43 % 0.00 in
15:39 63.9 °F 42.1 °F 30.00 in WSW 11.5 mph 8.5 mph 45 % 0.00 in
15:44 64.3 °F 41.3 °F 30.00 in WSW 13.8 mph 10.1 mph 43 % 0.00 in
15:49 64.1 °F 40.5 °F 30.00 in West 12.7 mph 8.3 mph 42 % 0.00 in
15:54 63.9 °F 41.0 °F 30.00 in SW 11.5 mph 7.5 mph 43 % 0.00 in
15:59 63.4 °F 41.1 °F 30.00 in WSW 11.5 mph 6.2 mph 44 % 0.00 in
16:04 63.0 °F 40.7 °F 30.00 in North 10.4 mph 9.0 mph 44 % 0.00 in
16:09 62.7 °F 41.6 °F 30.00 in WSW 6.9 mph 3.5 mph 46 % 0.00 in
16:14 62.8 °F 42.3 °F 30.00 in WSW 9.2 mph 6.6 mph 47 % 0.00 in
16:19 62.9 °F 41.8 °F 30.00 in WSW 8.1 mph 5.6 mph 46 % 0.00 in
16:24 62.9 °F 42.4 °F 30.00 in SSW 12.7 mph 9.6 mph 47 % 0.00 in
16:29 62.5 °F 45.1 °F 30.00 in SSW 15.0 mph 6.8 mph 53 % 0.00 in
16:34 62.3 °F 46.4 °F 30.00 in South 11.5 mph 10.4 mph 56 % 0.00 in
16:39 62.4 °F 47.0 °F 30.00 in SSW 19.0 mph 10.3 mph 57 % 0.00 in
16:44 61.9 °F 46.5 °F 30.00 in North 18.4 mph 10.2 mph 57 % 0.00 in
16:49 60.8 °F 47.3 °F 30.00 in South 16.1 mph 8.6 mph 61 % 0.00 in
16:54 60.1 °F 47.5 °F 30.00 in South 12.7 mph 7.8 mph 63 % 0.00 in
16:59 59.9 °F 47.7 °F 30.01 in South 12.7 mph 9.1 mph 64 % 0.00 in
17:04 59.9 °F 46.4 °F 30.01 in SW 13.8 mph 6.9 mph 61 % 0.00 in
17:09 60.0 °F 46.1 °F 30.01 in SSW 17.3 mph 6.6 mph 60 % 0.00 in
17:14 60.7 °F 46.7 °F 30.00 in SSW 17.3 mph 10.9 mph 60 % 0.00 in
17:19 60.9 °F 46.0 °F 30.00 in SSW 12.7 mph 10.6 mph 58 % 0.00 in
17:24 61.5 °F 46.1 °F 30.00 in SSW 11.0 mph 8.9 mph 57 % 0.00 in
17:29 61.8 °F 46.4 °F 30.00 in North 12.7 mph 9.1 mph 57 % 0.00 in
17:34 61.6 °F 46.2 °F 30.01 in SSW 17.3 mph 12.3 mph 57 % 0.00 in
17:39 61.3 °F 45.9 °F 30.01 in SSW 16.1 mph 8.9 mph 57 % 0.00 in
17:44 61.4 °F 46.0 °F 30.01 in SSW 11.5 mph 7.8 mph 57 % 0.00 in
17:49 61.6 °F 46.2 °F 30.01 in SW 11.5 mph 7.9 mph 57 % 0.00 in
17:54 61.5 °F 45.2 °F 30.01 in SSW 16.1 mph 11.0 mph 55 % 0.00 in
17:59 61.5 °F 46.1 °F 30.01 in SSW 9.2 mph 6.0 mph 57 % 0.00 in
18:04 61.7 °F 45.8 °F 30.01 in SW 12.7 mph 8.4 mph 56 % 0.00 in
18:09 61.9 °F 45.5 °F 30.01 in SSW 11.5 mph 7.0 mph 55 % 0.00 in
18:14 62.0 °F 45.6 °F 30.01 in SSW 10.0 mph 9.1 mph 55 % 0.00 in
18:19 62.1 °F 45.7 °F 30.01 in WSW 11.5 mph 7.5 mph 55 % 0.00 in
18:24 62.3 °F 45.9 °F 30.01 in SSW 10.4 mph 9.4 mph 55 % 0.00 in
18:29 62.2 °F 45.8 °F 30.01 in SW 9.2 mph 5.2 mph 55 % 0.00 in
18:34 62.2 °F 45.8 °F 30.01 in WSW 10.4 mph 7.6 mph 55 % 0.00 in
18:39 62.1 °F 45.7 °F 30.01 in SSW 11.5 mph 5.6 mph 55 % 0.00 in
18:44 62.1 °F 45.7 °F 30.01 in SW 11.5 mph 8.2 mph 55 % 0.00 in
18:49 61.3 °F 45.9 °F 30.01 in SSW 11.5 mph 6.6 mph 57 % 0.00 in
18:54 61.0 °F 46.1 °F 30.01 in SSW 8.1 mph 4.9 mph 58 % 0.00 in
18:59 60.8 °F 45.9 °F 30.01 in SSW 9.2 mph 6.2 mph 58 % 0.00 in
19:04 60.6 °F 46.2 °F 30.01 in North 6.9 mph 3.8 mph 59 % 0.00 in
19:09 61.0 °F 46.1 °F 30.01 in SSW 2.3 mph 0.2 mph 58 % 0.00 in
19:14 61.3 °F 45.9 °F 30.01 in North 3.5 mph 3.2 mph 57 % 0.00 in
19:19 61.5 °F 45.2 °F 30.01 in SW 8.1 mph 6.5 mph 55 % 0.00 in
19:24 61.2 °F 44.9 °F 30.01 in SW 11.5 mph 5.8 mph 55 % 0.00 in
19:29 61.0 °F 45.2 °F 30.02 in SW 7.0 mph 5.9 mph 56 % 0.00 in
19:34 60.7 °F 45.4 °F 30.02 in SW 8.1 mph 3.2 mph 57 % 0.00 in
19:39 60.3 °F 45.5 °F 30.02 in SW 9.0 mph 5.7 mph 58 % 0.00 in
19:44 59.7 °F 44.9 °F 30.02 in SW 9.2 mph 6.2 mph 58 % 0.00 in
19:49 59.4 °F 44.6 °F 30.02 in SW 8.1 mph 7.0 mph 58 % 0.00 in
19:54 59.0 °F 45.1 °F 30.03 in SW 8.1 mph 2.6 mph 60 % 0.00 in
19:59 58.6 °F 44.8 °F 30.03 in North 6.0 mph 4.3 mph 60 % 0.00 in
20:04 58.3 °F 44.9 °F 30.03 in SW 5.8 mph 3.3 mph 61 % 0.00 in
20:09 58.0 °F 44.6 °F 30.03 in SW 7.0 mph 6.3 mph 61 % 0.00 in
20:14 57.7 °F 44.8 °F 30.04 in SSW 8.1 mph 4.4 mph 62 % 0.00 in
20:19 57.4 °F 44.9 °F 30.04 in SSW 4.6 mph 4.6 mph 63 % 0.00 in
20:24 57.2 °F 45.1 °F 30.04 in SSW 10.0 mph 2.5 mph 64 % 0.00 in
20:29 56.8 °F 44.7 °F 30.04 in SSW 5.8 mph 3.0 mph 64 % 0.00 in
20:34 56.5 °F 44.9 °F 30.04 in SSW 5.8 mph 3.6 mph 65 % 0.00 in
20:39 56.3 °F 45.1 °F 30.04 in SSW 3.5 mph 2.2 mph 66 % 0.00 in
20:44 56.0 °F 45.2 °F 30.04 in SSW 5.8 mph 1.3 mph 67 % 0.00 in
20:49 55.8 °F 45.4 °F 30.04 in SSW 4.6 mph 1.9 mph 68 % 0.00 in
20:54 55.6 °F 45.2 °F 30.04 in SSW 3.5 mph 1.2 mph 68 % 0.00 in
20:59 55.2 °F 45.2 °F 30.04 in SSW 2.3 mph   69 % 0.00 in
21:04 54.6 °F 44.6 °F 30.04 in North 3.5 mph 2.4 mph 69 % 0.00 in
21:09 54.0 °F 44.4 °F 30.05 in North 1.2 mph   70 % 0.00 in
21:14 53.4 °F 44.2 °F 30.05 in Calm     71 % 0.00 in
21:19 53.0 °F 44.2 °F 30.05 in Calm     72 % 0.00 in
21:24 52.5 °F 43.7 °F 30.05 in Calm     72 % 0.00 in
21:29 52.1 °F 43.7 °F 30.05 in Calm   0.1 mph 73 % 0.00 in
21:34 51.8 °F 43.8 °F 30.06 in SSW 1.2 mph 0.3 mph 74 % 0.00 in
21:39 51.5 °F 43.8 °F 30.06 in Calm     75 % 0.00 in
21:44 51.2 °F 43.9 °F 30.06 in Calm     76 % 0.00 in
21:49 50.9 °F 43.6 °F 30.06 in Calm     76 % 0.00 in
21:54 50.5 °F 43.6 °F 30.06 in Calm     77 % 0.00 in
21:59 50.4 °F 44.1 °F 30.06 in Calm     79 % 0.00 in
22:04 50.2 °F 44.3 °F 30.07 in Calm     80 % 0.00 in
22:09 50.0 °F 44.1 °F 30.06 in Calm     80 % 0.00 in
22:14 49.9 °F 44.0 °F 30.06 in Calm     80 % 0.00 in
22:19 49.8 °F 44.2 °F 30.06 in SSW 1.2 mph   81 % 0.00 in
22:24 49.6 °F 44.0 °F 30.06 in Calm     81 % 0.00 in
22:29 49.4 °F 44.1 °F 30.07 in SSW 2.3 mph 1.5 mph 82 % 0.00 in
22:34 49.4 °F 44.5 °F 30.06 in SSW 2.3 mph 0.8 mph 83 % 0.00 in
22:39 49.3 °F 44.4 °F 30.07 in SSW 2.3 mph 1.7 mph 83 % 0.00 in
22:44 49.2 °F 44.3 °F 30.07 in Calm     83 % 0.00 in
22:49 48.9 °F 44.0 °F 30.07 in Calm     83 % 0.00 in
22:54 48.7 °F 44.1 °F 30.07 in Calm     84 % 0.00 in
22:59 48.7 °F 44.4 °F 30.06 in North 2.3 mph 1.6 mph 85 % 0.00 in
23:04 48.6 °F 44.0 °F 30.07 in Calm     84 % 0.00 in
23:09 48.3 °F 44.0 °F 30.07 in Calm     85 % 0.00 in
23:14 48.1 °F 43.8 °F 30.07 in Calm     85 % 0.00 in
23:19 47.9 °F 43.9 °F 30.07 in Calm     86 % 0.00 in
23:24 47.8 °F 43.8 °F 30.07 in Calm     86 % 0.00 in
23:29 47.7 °F 43.7 °F 30.06 in Calm     86 % 0.00 in
23:34 47.5 °F 43.5 °F 30.06 in Calm     86 % 0.00 in
23:39 47.3 °F 43.6 °F 30.06 in Calm     87 % 0.00 in
23:44 47.2 °F 43.5 °F 30.06 in Calm     87 % 0.00 in
23:49 47.2 °F 43.8 °F 30.06 in Calm     88 % 0.00 in
23:54 47.2 °F 43.8 °F 30.06 in Calm     88 % 0.00 in
23:59 47.2 °F 43.8 °F 30.06 in Calm     88 % 0.00 in
Ararat Weather
Compliments of Weather Underground - 2.25 mb
Click here to send mail.


ABOUT

Live weather data from Ararat, Victoria, Australia, 3377
Data uploaded from Cumulus every 5 minutes to Weather Underground.
This site then downloads the raw data for formatting and display.
Metric and imperial data can be displayed. Graphs and historical data available.
Includes Sun and Moon times and rain image live from BOM.

Check out Ararat Weather on Facebook, Twitter and Google +

Help support ongoing costs by checking out the ads





Follow @AraratWeather